Main page
METAR-TAF:

METAR-TAF

Airports :

Mărculești Air Force Base

Florești, Moldova

latitude: 47-51-45N, longitude: 028-12-45E, elevation: 101 m

Current weather observation

The report was made 4 hours and 48 minutes ago, at 14:00 UTC
Wind 4 kt from the East/Southeast, varying between East and South
Temperature 25°C
Humidity 44%
Pressure 1016 hPa
Visibility 10 km or more
no clouds below 1500 m and no cumulonimbus

METAR: LUBM 161400Z 12004KT 100V170 CAVOK 25/12 Q1016 R25/CLRD65

Time: 21:48 (18:48 UTC)

Forecast

The report was made 7 hours and 28 minutes ago, at 11:20 UTC
Forecast valid from 16 at 12 UTC to 16 at 21 UTC
Wind 6 kt from the Southeast
Visibility 10 km or more
no clouds below 1500 m and no cumulonimbus

TAF: LUBM 161120Z 1612/1621 13006KT CAVOK

Weather observations and forecasts of more than 4000 airports (METAR and TAF reports).

The available stations are represented by yellow and red dots on the map.

Hover mouse over dot to see the name of the station.

Then click to see weather observations and forecasts.

To change the map : click on the green buttons with a black cross to zoom in, on the green button with a dash to zoom out, or on the green arrows for adjacent maps.


METAR-TAF: